createdAt,value
2019-02-17T00:00:52.440Z,64.80
2019-02-17T00:03:18.707Z,64.70
2019-02-17T00:05:44.978Z,65.00
2019-02-17T00:08:11.323Z,65.50
2019-02-17T00:10:37.593Z,66.10
2019-02-17T00:13:04.054Z,66.00
2019-02-17T00:15:30.275Z,65.50
2019-02-17T00:17:56.501Z,65.80
2019-02-17T00:20:22.787Z,66.60
2019-02-17T00:22:49.106Z,67.40
2019-02-17T00:25:15.467Z,67.20
2019-02-17T00:27:41.713Z,67.50
2019-02-17T00:30:10.074Z,67.40
2019-02-17T00:32:36.291Z,67.70
2019-02-17T00:35:02.950Z,68.30
2019-02-17T00:37:29.079Z,67.90
2019-02-17T00:39:55.331Z,67.60
2019-02-17T00:42:21.725Z,67.10
2019-02-17T00:44:47.964Z,66.80
2019-02-17T00:47:14.225Z,66.70
2019-02-17T00:49:40.451Z,66.80
2019-02-17T00:52:06.583Z,67.10
2019-02-17T00:54:32.734Z,67.50
2019-02-17T00:56:59.084Z,67.70
2019-02-17T00:59:25.312Z,67.50
2019-02-17T01:01:51.445Z,67.90
2019-02-17T01:04:17.730Z,68.30
2019-02-17T01:06:43.876Z,68.60
2019-02-17T01:09:10.052Z,68.80
2019-02-17T01:11:36.286Z,68.90
2019-02-17T01:14:02.907Z,68.90
2019-02-17T01:16:29.062Z,69.20
2019-02-17T01:18:55.211Z,69.00
2019-02-17T01:21:21.453Z,69.40
2019-02-17T01:23:47.722Z,69.40
2019-02-17T01:26:13.933Z,69.70
2019-02-17T01:28:40.221Z,70.10
2019-02-17T01:31:08.445Z,70.20
2019-02-17T01:33:34.593Z,70.30
2019-02-17T01:36:00.877Z,70.00
2019-02-17T01:38:27.229Z,69.70
2019-02-17T01:40:53.506Z,70.00
2019-02-17T01:43:19.747Z,70.10
2019-02-17T01:45:45.996Z,70.60
2019-02-17T01:48:12.229Z,71.00
2019-02-17T01:50:38.354Z,70.70
2019-02-17T01:53:04.539Z,71.60
2019-02-17T01:55:30.804Z,72.40
2019-02-17T01:57:57.018Z,72.40
2019-02-17T02:00:23.301Z,72.70
2019-02-17T02:02:49.522Z,73.40
2019-02-17T02:05:15.891Z,73.60
2019-02-17T02:07:42.160Z,73.10
2019-02-17T02:10:08.982Z,73.40
2019-02-17T02:12:35.444Z,73.50
2019-02-17T02:15:01.875Z,73.80
2019-02-17T02:17:28.220Z,73.90
2019-02-17T02:19:54.552Z,73.60
2019-02-17T02:22:20.713Z,73.10
2019-02-17T02:24:47.114Z,73.00
2019-02-17T02:27:13.318Z,73.80
2019-02-17T02:29:41.341Z,74.40
2019-02-17T02:32:07.508Z,75.20
2019-02-17T02:34:33.752Z,76.00
2019-02-17T02:36:59.993Z,76.80
2019-02-17T02:39:26.210Z,77.10
2019-02-17T02:41:52.561Z,76.70
2019-02-17T02:44:18.929Z,76.20
2019-02-17T02:46:45.292Z,76.40
2019-02-17T02:49:11.616Z,76.80
2019-02-17T02:51:37.966Z,77.10
2019-02-17T02:54:04.797Z,77.00
2019-02-17T02:56:31.046Z,77.10
2019-02-17T02:58:57.283Z,76.20
2019-02-17T03:01:23.644Z,75.80
2019-02-17T03:03:49.863Z,76.10
2019-02-17T03:06:20.771Z,76.60
2019-02-17T03:08:47.102Z,76.10
2019-02-17T03:11:13.349Z,76.20
2019-02-17T03:13:39.493Z,76.20
2019-02-17T03:16:06.022Z,76.30
2019-02-17T03:18:32.281Z,76.80
2019-02-17T03:20:58.520Z,77.30
2019-02-17T03:23:24.786Z,78.10
2019-02-17T03:25:51.021Z,78.30
2019-02-17T03:28:17.246Z,78.20
2019-02-17T03:30:43.563Z,78.40
2019-02-17T03:33:09.813Z,77.70
2019-02-17T03:35:36.163Z,77.80
2019-02-17T03:38:02.292Z,78.00
2019-02-17T03:40:28.543Z,78.40
2019-02-17T03:42:54.790Z,79.30
2019-02-17T03:45:20.997Z,79.90
2019-02-17T03:47:47.199Z,80.10
2019-02-17T03:50:13.444Z,80.60
2019-02-17T03:52:39.717Z,80.70
2019-02-17T03:55:06.128Z,80.20
2019-02-17T03:57:32.370Z,79.40
2019-02-17T03:59:58.796Z,79.60
2019-02-17T04:02:25.049Z,79.60
2019-02-17T04:04:51.205Z,79.30
2019-02-17T04:07:17.755Z,79.70
2019-02-17T04:09:44.106Z,79.50
2019-02-17T04:12:10.339Z,79.10
2019-02-17T04:14:36.596Z,79.10
2019-02-17T04:17:02.981Z,79.00
2019-02-17T04:19:29.342Z,78.80
2019-02-17T04:21:55.555Z,79.00
2019-02-17T04:24:21.786Z,78.50
2019-02-17T04:26:47.950Z,79.30
2019-02-17T04:29:14.172Z,80.20
2019-02-17T04:31:40.380Z,80.70
2019-02-17T04:34:06.739Z,81.70
2019-02-17T04:36:33.006Z,81.40
2019-02-17T04:38:59.470Z,81.40
2019-02-17T04:41:25.733Z,81.70
2019-02-17T04:43:52.003Z,81.70
2019-02-17T04:46:18.270Z,81.10
2019-02-17T04:48:44.409Z,80.70
2019-02-17T04:51:10.821Z,80.70
2019-02-17T04:53:37.087Z,80.70
2019-02-17T04:56:03.204Z,80.60
2019-02-17T04:58:29.423Z,80.60
2019-02-17T05:00:55.744Z,80.00
2019-02-17T05:03:21.967Z,80.50
2019-02-17T05:05:48.129Z,79.50
2019-02-17T05:08:14.584Z,79.90
2019-02-17T05:10:40.841Z,80.00
2019-02-17T05:13:07.108Z,80.60
2019-02-17T05:15:33.471Z,82.00
2019-02-17T05:17:59.736Z,82.70
2019-02-17T05:20:25.971Z,83.00
2019-02-17T05:22:52.214Z,81.90
2019-02-17T05:25:18.437Z,80.40
2019-02-17T05:27:44.806Z,80.40
2019-02-17T05:30:11.279Z,81.30
2019-02-17T05:32:37.503Z,82.30
2019-02-17T05:35:04.134Z,82.90
2019-02-17T05:37:30.471Z,82.50
2019-02-17T05:39:56.944Z,82.60
2019-02-17T05:42:23.187Z,82.30
2019-02-17T05:44:49.390Z,83.60
2019-02-17T05:47:15.679Z,83.50
2019-02-17T05:49:41.919Z,83.40
2019-02-17T05:52:08.279Z,82.80
2019-02-17T05:54:34.751Z,82.40
2019-02-17T05:57:01.012Z,82.30
2019-02-17T05:59:27.241Z,82.10
2019-02-17T06:01:53.478Z,81.70
2019-02-17T06:04:19.966Z,82.30
2019-02-17T06:06:46.248Z,82.20
2019-02-17T06:09:12.571Z,81.40
2019-02-17T06:11:38.755Z,80.90
2019-02-17T06:14:05.038Z,80.60
2019-02-17T06:16:31.248Z,81.80
2019-02-17T06:18:57.506Z,83.10
2019-02-17T06:21:23.986Z,85.20
2019-02-17T06:23:50.269Z,84.00
2019-02-17T06:26:16.560Z,83.50
2019-02-17T06:28:42.784Z,83.30
2019-02-17T06:31:14.580Z,83.30
2019-02-17T06:33:37.064Z,84.10
2019-02-17T06:36:04.191Z,83.50
2019-02-17T06:38:30.349Z,82.40
2019-02-17T06:40:56.697Z,81.80
2019-02-17T06:43:22.961Z,82.10
2019-02-17T06:45:49.446Z,82.10
2019-02-17T06:48:15.721Z,83.30
2019-02-17T06:50:42.101Z,84.80
2019-02-17T06:53:08.367Z,84.90
2019-02-17T06:55:39.483Z,85.00
2019-02-17T06:58:05.869Z,84.80
2019-02-17T07:00:34.086Z,85.00
2019-02-17T07:03:00.331Z,84.70
2019-02-17T07:05:29.198Z,85.00
2019-02-17T07:07:55.539Z,86.30
2019-02-17T07:10:21.829Z,86.60
2019-02-17T07:12:48.046Z,85.50
2019-02-17T07:15:14.375Z,85.40
2019-02-17T07:17:40.656Z,86.10
2019-02-17T07:20:07.122Z,86.90
2019-02-17T07:22:33.350Z,87.70
2019-02-17T07:24:59.532Z,88.80
2019-02-17T07:27:25.759Z,89.00
2019-02-17T07:29:52.054Z,88.90
2019-02-17T07:32:18.210Z,89.50
2019-02-17T07:34:44.435Z,90.20
2019-02-17T07:37:10.617Z,90.30
2019-02-17T07:39:36.823Z,90.40
2019-02-17T07:42:03.080Z,90.00
2019-02-17T07:44:29.395Z,90.40
2019-02-17T07:46:55.611Z,91.30
2019-02-17T07:49:21.785Z,91.20
2019-02-17T07:51:48.019Z,91.00
2019-02-17T07:54:14.234Z,90.80
2019-02-17T07:56:40.649Z,91.00
2019-02-17T07:59:06.890Z,91.30
2019-02-17T08:01:33.116Z,91.20
2019-02-17T08:03:59.413Z,91.30
2019-02-17T08:06:25.681Z,91.70
2019-02-17T08:08:51.940Z,91.90
2019-02-17T08:11:18.069Z,92.10
2019-02-17T08:13:44.321Z,92.50
2019-02-17T08:16:10.464Z,93.10
2019-02-17T08:18:36.783Z,93.40
2019-02-17T08:21:03.012Z,92.90
2019-02-17T08:23:29.137Z,93.20
2019-02-17T08:25:55.382Z,93.20
2019-02-17T08:28:21.549Z,93.40
2019-02-17T08:30:47.857Z,93.90
2019-02-17T08:33:14.005Z,93.80
2019-02-17T08:35:40.237Z,94.20
2019-02-17T08:38:06.618Z,94.10
2019-02-17T08:40:32.937Z,93.50
2019-02-17T08:42:59.259Z,93.30
2019-02-17T08:45:25.717Z,93.70
2019-02-17T08:47:51.956Z,94.00
2019-02-17T08:50:19.909Z,94.00
2019-02-17T08:52:46.226Z,92.70
2019-02-17T08:55:12.357Z,92.10
2019-02-17T08:57:38.533Z,91.30
2019-02-17T09:00:08.465Z,90.60
2019-02-17T09:02:34.713Z,90.20
2019-02-17T09:05:01.103Z,89.80
2019-02-17T09:07:27.325Z,89.10
2019-02-17T09:09:53.666Z,88.90
2019-02-17T09:12:19.936Z,88.40
2019-02-17T09:14:46.215Z,86.80
2019-02-17T09:17:12.465Z,86.50
2019-02-17T09:19:38.924Z,86.30
2019-02-17T09:22:05.268Z,85.50
2019-02-17T09:24:31.525Z,85.00
2019-02-17T09:26:57.796Z,84.60
2019-02-17T09:29:24.067Z,84.40
2019-02-17T09:31:50.423Z,83.70
2019-02-17T09:34:16.814Z,82.90
2019-02-17T09:36:43.204Z,81.50
2019-02-17T09:39:09.429Z,80.60
2019-02-17T09:41:35.653Z,80.40
2019-02-17T09:44:01.772Z,78.80
2019-02-17T09:46:28.171Z,77.40
2019-02-17T09:48:55.813Z,75.20
2019-02-17T09:51:22.247Z,74.80
2019-02-17T09:53:48.505Z,74.60
2019-02-17T09:56:14.704Z,72.40
2019-02-17T09:58:40.947Z,72.20
2019-02-17T10:01:10.297Z,70.20
2019-02-17T10:03:36.922Z,69.10
2019-02-17T10:06:03.239Z,68.10
2019-02-17T10:08:29.704Z,64.80
2019-02-17T10:10:55.961Z,64.00
2019-02-17T10:13:22.325Z,63.40
2019-02-17T10:15:48.653Z,60.60
2019-02-17T10:18:15.143Z,60.50
2019-02-17T10:20:41.410Z,59.70
2019-02-17T10:23:09.738Z,59.20
2019-02-17T10:25:35.879Z,57.70
2019-02-17T10:28:02.137Z,56.90
2019-02-17T10:30:28.460Z,56.00
2019-02-17T10:32:54.896Z,53.40
2019-02-17T10:35:21.147Z,52.70
2019-02-17T10:37:47.426Z,51.90
2019-02-17T10:40:18.575Z,50.80
2019-02-17T10:42:44.797Z,50.50
2019-02-17T10:45:11.457Z,49.80
2019-02-17T10:47:37.944Z,49.70
2019-02-17T10:50:07.203Z,48.40
2019-02-17T10:52:33.414Z,48.00
2019-02-17T10:54:59.804Z,46.10
2019-02-17T10:57:26.046Z,46.60
2019-02-17T10:59:52.303Z,46.50
2019-02-17T11:02:18.452Z,46.80
2019-02-17T11:04:44.647Z,45.80
2019-02-17T11:07:10.958Z,45.20
2019-02-17T11:09:37.235Z,45.10
2019-02-17T11:12:03.481Z,44.90
2019-02-17T11:14:29.694Z,43.70
2019-02-17T11:16:55.840Z,43.30
2019-02-17T11:19:22.077Z,43.00
2019-02-17T11:21:48.438Z,42.10
2019-02-17T11:24:14.569Z,41.60
2019-02-17T11:26:41.005Z,41.50
2019-02-17T11:29:07.272Z,40.70
2019-02-17T11:31:33.596Z,40.90
2019-02-17T11:33:59.855Z,40.40
2019-02-17T11:36:26.097Z,39.80
2019-02-17T11:38:52.769Z,39.40
2019-02-17T11:41:19.029Z,40.40
2019-02-17T11:43:45.251Z,39.20
2019-02-17T11:46:11.427Z,38.50
2019-02-17T11:48:37.652Z,38.20
2019-02-17T11:51:04.017Z,38.10
2019-02-17T11:53:30.363Z,37.50
2019-02-17T11:55:56.663Z,37.50
2019-02-17T11:58:22.945Z,37.60
2019-02-17T12:00:49.230Z,37.00
2019-02-17T12:03:15.377Z,36.70
2019-02-17T12:05:41.638Z,36.50
2019-02-17T12:08:07.872Z,36.10
2019-02-17T12:10:34.368Z,36.20
2019-02-17T12:13:00.713Z,35.50
2019-02-17T12:15:26.848Z,34.80
2019-02-17T12:17:53.122Z,35.80
2019-02-17T12:20:33.816Z,35.60
2019-02-17T12:23:02.063Z,35.10
2019-02-17T12:25:30.378Z,34.00
2019-02-17T12:28:01.277Z,32.60
2019-02-17T12:30:27.654Z,32.40
2019-02-17T12:32:54.003Z,32.00
2019-02-17T12:35:20.150Z,31.00
2019-02-17T12:37:47.419Z,30.40
2019-02-17T12:40:13.805Z,30.30
2019-02-17T12:42:40.054Z,29.60
2019-02-17T12:45:11.073Z,30.10
2019-02-17T12:47:37.333Z,30.50
2019-02-17T12:50:06.641Z,29.10
2019-02-17T12:52:32.899Z,29.70
2019-02-17T12:54:59.119Z,30.00
2019-02-17T12:57:25.393Z,29.10
2019-02-17T12:59:51.744Z,30.00
2019-02-17T13:02:18.133Z,28.70
2019-02-17T13:04:44.527Z,28.40
2019-02-17T13:07:10.859Z,28.50
2019-02-17T13:09:37.077Z,28.40
2019-02-17T13:12:03.434Z,28.40
2019-02-17T13:14:29.740Z,28.30
2019-02-17T13:16:55.904Z,28.20
2019-02-17T13:19:23.088Z,28.10
2019-02-17T13:21:49.395Z,28.10
2019-02-17T13:24:15.615Z,27.90
2019-02-17T13:26:41.835Z,27.50
2019-02-17T13:29:08.077Z,27.90
2019-02-17T13:31:34.334Z,27.60
2019-02-17T13:34:01.001Z,28.10
2019-02-17T13:36:27.233Z,27.20
2019-02-17T13:38:53.581Z,27.60
2019-02-17T13:41:20.041Z,27.40
2019-02-17T13:43:46.537Z,27.50
2019-02-17T13:46:12.777Z,27.30
2019-02-17T13:48:39.027Z,27.30
2019-02-17T13:51:05.372Z,27.20
2019-02-17T13:53:31.600Z,27.20
2019-02-17T13:55:57.771Z,27.00
2019-02-17T13:58:24.147Z,26.20
2019-02-17T14:00:50.522Z,26.30
2019-02-17T14:03:16.847Z,26.20
2019-02-17T14:05:43.167Z,24.80
2019-02-17T14:08:09.480Z,25.80
2019-02-17T14:10:35.744Z,25.30
2019-02-17T14:13:01.902Z,24.50
2019-02-17T14:15:28.277Z,25.90
2019-02-17T14:17:54.529Z,25.90
2019-02-17T14:20:20.783Z,25.00
2019-02-17T14:22:47.148Z,25.10
2019-02-17T14:25:13.386Z,25.40
2019-02-17T14:27:39.736Z,27.00
2019-02-17T14:30:11.679Z,26.00
2019-02-17T14:32:37.948Z,25.50
2019-02-17T14:35:05.180Z,25.20
2019-02-17T14:37:31.587Z,25.40
2019-02-17T14:39:58.106Z,24.10
2019-02-17T14:42:24.325Z,25.20
2019-02-17T14:44:50.548Z,25.20
2019-02-17T14:47:16.830Z,24.10
2019-02-17T14:49:43.340Z,24.60
2019-02-17T14:52:09.530Z,25.40
2019-02-17T14:54:35.802Z,25.90
2019-02-17T14:57:02.240Z,25.30
2019-02-17T14:59:28.578Z,25.90
2019-02-17T15:01:54.830Z,25.50
2019-02-17T15:04:22.800Z,26.50
2019-02-17T15:06:49.036Z,26.00
2019-02-17T15:09:15.294Z,24.80
2019-02-17T15:11:41.652Z,25.90
2019-02-17T15:14:08.030Z,23.80
2019-02-17T15:16:34.249Z,24.40
2019-02-17T15:19:00.503Z,23.90
2019-02-17T15:21:26.818Z,23.50
2019-02-17T15:23:53.161Z,24.80
2019-02-17T15:26:19.413Z,25.60
2019-02-17T15:28:50.945Z,25.20
2019-02-17T15:31:13.746Z,25.70
2019-02-17T15:33:40.032Z,24.20
2019-02-17T15:36:06.305Z,23.60
2019-02-17T15:38:32.575Z,26.10
2019-02-17T15:40:58.806Z,26.80
2019-02-17T15:43:25.118Z,27.00
2019-02-17T15:45:51.366Z,25.90
2019-02-17T15:48:17.611Z,25.90
2019-02-17T15:50:43.743Z,26.20
2019-02-17T15:53:09.981Z,27.50
2019-02-17T15:55:36.265Z,27.20
2019-02-17T15:58:02.531Z,27.20
2019-02-17T16:00:28.779Z,27.30
2019-02-17T16:02:55.159Z,28.00
2019-02-17T16:05:21.410Z,28.00
2019-02-17T16:07:47.889Z,27.90
2019-02-17T16:10:15.418Z,28.20
2019-02-17T16:12:41.857Z,28.40
2019-02-17T16:15:19.884Z,28.60
2019-02-17T16:17:46.243Z,28.00
2019-02-17T16:20:12.924Z,28.60
2019-02-17T16:22:39.182Z,28.50
2019-02-17T16:25:06.835Z,27.00
2019-02-17T16:27:33.075Z,26.30
2019-02-17T16:29:59.329Z,26.30
2019-02-17T16:32:25.718Z,26.30
2019-02-17T16:34:52.119Z,26.80
2019-02-17T16:37:18.307Z,27.60
2019-02-17T16:39:44.638Z,27.90
2019-02-17T16:42:10.772Z,28.50
2019-02-17T16:44:37.027Z,29.20
2019-02-17T16:47:04.665Z,30.00
2019-02-17T16:49:32.553Z,30.60
2019-02-17T16:52:00.613Z,31.20
2019-02-17T16:54:31.849Z,31.90
2019-02-17T16:57:01.678Z,32.70
2019-02-17T16:59:31.450Z,33.40
2019-02-17T17:02:00.819Z,33.30
2019-02-17T17:04:31.557Z,32.70
2019-02-17T17:07:01.051Z,33.50
2019-02-17T17:09:29.300Z,34.30
2019-02-17T17:11:57.868Z,35.50
2019-02-17T17:14:24.477Z,35.40
2019-02-17T17:16:50.771Z,35.50
2019-02-17T17:19:16.991Z,36.00
2019-02-17T17:21:43.336Z,36.00
2019-02-17T17:24:17.416Z,36.30
2019-02-17T17:26:43.805Z,36.80
2019-02-17T17:29:10.031Z,37.10
2019-02-17T17:31:36.201Z,37.40
2019-02-17T17:34:02.450Z,37.30
2019-02-17T17:36:28.818Z,37.40
2019-02-17T17:38:55.336Z,38.50
2019-02-17T17:41:21.642Z,38.60
2019-02-17T17:43:48.010Z,38.50
2019-02-17T17:46:14.306Z,38.50
2019-02-17T17:48:40.455Z,38.60
2019-02-17T17:51:06.799Z,38.70
2019-02-17T17:53:33.037Z,38.50
2019-02-17T17:55:59.273Z,38.50
2019-02-17T17:58:25.563Z,38.40
2019-02-17T18:00:51.909Z,38.60
2019-02-17T18:03:18.173Z,38.50
2019-02-17T18:05:44.546Z,38.40
2019-02-17T18:08:11.033Z,38.30
2019-02-17T18:10:38.912Z,38.50
2019-02-17T18:13:05.357Z,38.60
2019-02-17T18:15:31.871Z,38.50
2019-02-17T18:17:58.176Z,38.50
2019-02-17T18:20:24.385Z,38.50
2019-02-17T18:22:50.663Z,38.80
2019-02-17T18:25:16.876Z,38.90
2019-02-17T18:27:43.129Z,38.90
2019-02-17T18:30:17.718Z,39.20
2019-02-17T18:32:44.079Z,39.10
2019-02-17T18:35:19.169Z,39.50
2019-02-17T18:37:38.507Z,39.50
2019-02-17T18:40:08.305Z,39.90
2019-02-17T18:42:34.557Z,40.00
2019-02-17T18:45:00.831Z,39.90
2019-02-17T18:47:27.029Z,40.20
2019-02-17T18:49:53.271Z,40.40
2019-02-17T18:52:19.465Z,40.90
2019-02-17T18:54:45.806Z,40.90
2019-02-17T18:57:12.115Z,40.80
2019-02-17T18:59:38.275Z,41.00
2019-02-17T19:02:04.502Z,41.20
2019-02-17T19:04:30.956Z,41.00
2019-02-17T19:06:57.203Z,41.20
2019-02-17T19:09:23.510Z,41.50
2019-02-17T19:11:49.952Z,41.90
2019-02-17T19:14:16.186Z,42.20
2019-02-17T19:16:42.459Z,42.60
2019-02-17T19:19:08.791Z,42.70
2019-02-17T19:21:35.056Z,43.00
2019-02-17T19:24:01.428Z,43.50
2019-02-17T19:26:27.753Z,43.50
2019-02-17T19:28:54.125Z,43.30
2019-02-17T19:31:20.353Z,43.30
2019-02-17T19:33:47.065Z,43.50
2019-02-17T19:36:13.291Z,43.70
2019-02-17T19:38:39.835Z,43.80
2019-02-17T19:41:06.079Z,43.60
2019-02-17T19:43:32.313Z,44.00
2019-02-17T19:45:58.933Z,44.10
2019-02-17T19:48:27.242Z,45.00
2019-02-17T19:50:53.609Z,44.40
2019-02-17T19:53:19.964Z,44.50
2019-02-17T19:55:50.043Z,44.70
2019-02-17T19:58:16.282Z,44.80
2019-02-17T20:00:43.502Z,45.10
2019-02-17T20:03:17.684Z,45.30
2019-02-17T20:05:52.066Z,45.40
2019-02-17T20:08:18.789Z,46.10
2019-02-17T20:10:45.184Z,45.30
2019-02-17T20:13:11.489Z,45.50
2019-02-17T20:15:37.681Z,45.90
2019-02-17T20:18:04.120Z,46.20
2019-02-17T20:20:30.392Z,46.90
2019-02-17T20:22:57.351Z,46.30
2019-02-17T20:25:23.755Z,46.80
2019-02-17T20:27:50.005Z,46.30
2019-02-17T20:30:16.662Z,46.50
2019-02-17T20:32:42.985Z,46.60
2019-02-17T20:35:09.471Z,46.70
2019-02-17T20:37:35.763Z,46.60
2019-02-17T20:40:04.421Z,46.80
2019-02-17T20:42:30.639Z,47.10
2019-02-17T20:44:56.967Z,47.30
2019-02-17T20:47:23.424Z,47.50
2019-02-17T20:49:49.723Z,47.30
2019-02-17T20:52:16.001Z,47.70
2019-02-17T20:54:42.282Z,47.70
2019-02-17T20:57:08.759Z,47.90
2019-02-17T20:59:34.977Z,47.90
2019-02-17T21:02:01.432Z,48.10
2019-02-17T21:04:27.672Z,48.20
2019-02-17T21:06:53.966Z,48.80
2019-02-17T21:09:20.345Z,47.90
2019-02-17T21:11:46.658Z,48.00
2019-02-17T21:14:12.946Z,47.90
2019-02-17T21:16:39.735Z,48.20
2019-02-17T21:19:06.512Z,48.00
2019-02-17T21:21:32.965Z,48.20
2019-02-17T21:23:59.236Z,48.90
2019-02-17T21:26:26.434Z,48.20
2019-02-17T21:28:52.902Z,48.30
2019-02-17T21:31:19.128Z,48.70
2019-02-17T21:33:45.844Z,48.90
2019-02-17T21:36:12.052Z,49.00
2019-02-17T21:38:38.199Z,49.40
2019-02-17T21:41:09.317Z,49.50
2019-02-17T21:43:32.710Z,49.70
2019-02-17T21:45:59.067Z,49.80
2019-02-17T21:48:25.387Z,49.70
2019-02-17T21:50:51.652Z,49.70
2019-02-17T21:53:20.840Z,50.30
2019-02-17T21:55:45.957Z,51.20
2019-02-17T21:58:12.542Z,50.80
2019-02-17T22:00:38.784Z,50.90
2019-02-17T22:03:04.990Z,51.00
2019-02-17T22:05:31.133Z,51.10
2019-02-17T22:07:57.368Z,51.00
2019-02-17T22:10:23.795Z,51.10
2019-02-17T22:12:51.440Z,51.20
2019-02-17T22:15:22.065Z,51.50
2019-02-17T22:17:48.474Z,51.60
2019-02-17T22:20:14.848Z,51.80
2019-02-17T22:22:41.095Z,51.90
2019-02-17T22:25:08.760Z,52.00
2019-02-17T22:27:35.209Z,51.90
2019-02-17T22:30:01.674Z,52.10
2019-02-17T22:32:27.948Z,52.30
2019-02-17T22:34:54.257Z,52.20
2019-02-17T22:37:20.467Z,52.30
2019-02-17T22:39:47.658Z,52.60
2019-02-17T22:42:14.021Z,52.80
2019-02-17T22:44:40.269Z,52.90
2019-02-17T22:47:06.639Z,53.70
2019-02-17T22:49:32.979Z,53.70
2019-02-17T22:51:59.535Z,54.10
2019-02-17T22:54:25.880Z,54.40
2019-02-17T22:56:54.403Z,54.60
2019-02-17T22:59:21.258Z,55.10
2019-02-17T23:01:47.599Z,55.30
2019-02-17T23:04:13.877Z,55.40
2019-02-17T23:06:40.135Z,55.60
2019-02-17T23:09:07.129Z,55.70
2019-02-17T23:11:33.495Z,56.10
2019-02-17T23:13:59.846Z,56.10
2019-02-17T23:16:26.152Z,56.30
2019-02-17T23:18:52.407Z,56.60
2019-02-17T23:21:18.673Z,57.60
2019-02-17T23:23:44.900Z,58.10
2019-02-17T23:26:11.207Z,58.00
2019-02-17T23:28:48.517Z,58.10
2019-02-17T23:31:14.856Z,58.50
2019-02-17T23:33:44.071Z,59.00
2019-02-17T23:36:10.266Z,59.00
2019-02-17T23:38:36.654Z,59.40
2019-02-17T23:41:02.876Z,58.70
2019-02-17T23:43:29.134Z,59.00
2019-02-17T23:45:55.619Z,59.30
2019-02-17T23:48:21.846Z,59.60
2019-02-17T23:50:48.340Z,60.20
2019-02-17T23:53:14.812Z,59.90
2019-02-17T23:55:41.420Z,60.20
2019-02-17T23:58:07.716Z,60.90
